sensor_id;sensor_type;location;lat;lon;timestamp;P1;durP1;ratioP1;P2;durP2;ratioP2
67819;SDS011;54618;52.018;5.576;2022-08-07T00:01:49;2.78;;;1.30;;
67819;SDS011;54618;52.018;5.576;2022-08-07T00:04:15;2.78;;;1.30;;
67819;SDS011;54618;52.018;5.576;2022-08-07T00:06:41;3.15;;;1.40;;
67819;SDS011;54618;52.018;5.576;2022-08-07T00:09:07;2.15;;;1.38;;
67819;SDS011;54618;52.018;5.576;2022-08-07T00:11:32;2.03;;;1.17;;
67819;SDS011;54618;52.018;5.576;2022-08-07T00:13:58;2.42;;;1.38;;
67819;SDS011;54618;52.018;5.576;2022-08-07T00:16:24;2.65;;;1.42;;
67819;SDS011;54618;52.018;5.576;2022-08-07T00:18:50;2.95;;;1.52;;
67819;SDS011;54618;52.018;5.576;2022-08-07T00:21:15;3.42;;;1.30;;
67819;SDS011;54618;52.018;5.576;2022-08-07T00:23:41;2.10;;;1.25;;
67819;SDS011;54618;52.018;5.576;2022-08-07T00:26:08;3.40;;;1.45;;
67819;SDS011;54618;52.018;5.576;2022-08-07T00:28:35;2.97;;;1.42;;
67819;SDS011;54618;52.018;5.576;2022-08-07T00:31:03;2.47;;;1.40;;
67819;SDS011;54618;52.018;5.576;2022-08-07T00:33:33;2.25;;;1.40;;
67819;SDS011;54618;52.018;5.576;2022-08-07T00:35:59;3.30;;;1.52;;
67819;SDS011;54618;52.018;5.576;2022-08-07T00:38:25;3.58;;;1.42;;
67819;SDS011;54618;52.018;5.576;2022-08-07T00:40:51;2.67;;;1.50;;
67819;SDS011;54618;52.018;5.576;2022-08-07T00:43:16;2.25;;;1.30;;
67819;SDS011;54618;52.018;5.576;2022-08-07T00:45:42;2.38;;;1.30;;
67819;SDS011;54618;52.018;5.576;2022-08-07T00:48:08;2.53;;;1.40;;
67819;SDS011;54618;52.018;5.576;2022-08-07T00:50:34;2.55;;;1.35;;
67819;SDS011;54618;52.018;5.576;2022-08-07T00:53:01;2.00;;;1.30;;
67819;SDS011;54618;52.018;5.576;2022-08-07T00:55:27;3.53;;;1.40;;
67819;SDS011;54618;52.018;5.576;2022-08-07T00:57:53;3.15;;;1.70;;
67819;SDS011;54618;52.018;5.576;2022-08-07T01:00:19;2.90;;;1.50;;
67819;SDS011;54618;52.018;5.576;2022-08-07T01:02:45;3.47;;;1.50;;
67819;SDS011;54618;52.018;5.576;2022-08-07T01:05:11;3.20;;;1.50;;
67819;SDS011;54618;52.018;5.576;2022-08-07T01:07:38;2.58;;;1.42;;
67819;SDS011;54618;52.018;5.576;2022-08-07T01:10:04;3.78;;;1.38;;
67819;SDS011;54618;52.018;5.576;2022-08-07T01:12:31;2.25;;;1.40;;
67819;SDS011;54618;52.018;5.576;2022-08-07T01:14:57;2.67;;;1.48;;
67819;SDS011;54618;52.018;5.576;2022-08-07T01:17:24;2.88;;;1.60;;
67819;SDS011;54618;52.018;5.576;2022-08-07T01:19:50;3.72;;;1.60;;
67819;SDS011;54618;52.018;5.576;2022-08-07T01:22:17;2.30;;;1.30;;
67819;SDS011;54618;52.018;5.576;2022-08-07T01:24:44;2.72;;;1.30;;
67819;SDS011;54618;52.018;5.576;2022-08-07T01:27:10;2.55;;;1.55;;
67819;SDS011;54618;52.018;5.576;2022-08-07T01:29:35;2.97;;;1.40;;
67819;SDS011;54618;52.018;5.576;2022-08-07T01:32:01;3.17;;;1.67;;
67819;SDS011;54618;52.018;5.576;2022-08-07T01:34:31;1.92;;;1.27;;
67819;SDS011;54618;52.018;5.576;2022-08-07T01:36:57;2.35;;;1.40;;
67819;SDS011;54618;52.018;5.576;2022-08-07T01:39:24;2.15;;;1.40;;
67819;SDS011;54618;52.018;5.576;2022-08-07T01:41:50;3.45;;;1.67;;
67819;SDS011;54618;52.018;5.576;2022-08-07T01:44:16;2.97;;;1.50;;
67819;SDS011;54618;52.018;5.576;2022-08-07T01:46:41;2.28;;;1.60;;
67819;SDS011;54618;52.018;5.576;2022-08-07T01:49:07;2.60;;;1.50;;
67819;SDS011;54618;52.018;5.576;2022-08-07T01:51:35;2.03;;;1.25;;
67819;SDS011;54618;52.018;5.576;2022-08-07T01:54:02;3.17;;;1.60;;
67819;SDS011;54618;52.018;5.576;2022-08-07T01:56:48;2.58;;;1.58;;
67819;SDS011;54618;52.018;5.576;2022-08-07T01:59:23;2.40;;;1.48;;
67819;SDS011;54618;52.018;5.576;2022-08-07T02:01:53;2.30;;;1.40;;
67819;SDS011;54618;52.018;5.576;2022-08-07T02:04:31;2.55;;;1.55;;
67819;SDS011;54618;52.018;5.576;2022-08-07T02:07:06;2.92;;;1.70;;
67819;SDS011;54618;52.018;5.576;2022-08-07T02:09:36;2.45;;;1.27;;
67819;SDS011;54618;52.018;5.576;2022-08-07T02:12:05;3.13;;;1.40;;
67819;SDS011;54618;52.018;5.576;2022-08-07T02:14:41;2.88;;;1.65;;
67819;SDS011;54618;52.018;5.576;2022-08-07T02:17:14;3.53;;;1.80;;
67819;SDS011;54618;52.018;5.576;2022-08-07T02:19:41;2.55;;;1.80;;
67819;SDS011;54618;52.018;5.576;2022-08-07T02:22:10;3.17;;;1.60;;
67819;SDS011;54618;52.018;5.576;2022-08-07T02:24:38;2.33;;;1.50;;
67819;SDS011;54618;52.018;5.576;2022-08-07T02:27:07;3.37;;;1.80;;
67819;SDS011;54618;52.018;5.576;2022-08-07T02:29:34;2.47;;;1.55;;
67819;SDS011;54618;52.018;5.576;2022-08-07T02:32:02;2.20;;;1.50;;
67819;SDS011;54618;52.018;5.576;2022-08-07T02:34:32;2.50;;;1.60;;
67819;SDS011;54618;52.018;5.576;2022-08-07T02:36:58;3.17;;;1.67;;
67819;SDS011;54618;52.018;5.576;2022-08-07T02:39:27;3.13;;;1.65;;
67819;SDS011;54618;52.018;5.576;2022-08-07T02:41:54;3.53;;;1.50;;
67819;SDS011;54618;52.018;5.576;2022-08-07T02:44:20;2.80;;;1.45;;
67819;SDS011;54618;52.018;5.576;2022-08-07T02:46:48;2.47;;;1.50;;
67819;SDS011;54618;52.018;5.576;2022-08-07T02:49:17;2.50;;;1.58;;
67819;SDS011;54618;52.018;5.576;2022-08-07T02:51:43;2.20;;;1.58;;
67819;SDS011;54618;52.018;5.576;2022-08-07T02:54:10;2.53;;;1.60;;
67819;SDS011;54618;52.018;5.576;2022-08-07T02:56:37;2.63;;;1.73;;
67819;SDS011;54618;52.018;5.576;2022-08-07T02:59:07;2.88;;;1.63;;
67819;SDS011;54618;52.018;5.576;2022-08-07T03:01:36;2.80;;;1.50;;
67819;SDS011;54618;52.018;5.576;2022-08-07T03:04:05;2.83;;;1.60;;
67819;SDS011;54618;52.018;5.576;2022-08-07T03:06:33;2.72;;;1.60;;
67819;SDS011;54618;52.018;5.576;2022-08-07T03:09:01;3.55;;;1.73;;
67819;SDS011;54618;52.018;5.576;2022-08-07T03:11:32;2.95;;;1.67;;
67819;SDS011;54618;52.018;5.576;2022-08-07T03:13:58;3.58;;;1.60;;
67819;SDS011;54618;52.018;5.576;2022-08-07T03:16:29;2.58;;;1.70;;
67819;SDS011;54618;52.018;5.576;2022-08-07T03:18:55;2.13;;;1.55;;
67819;SDS011;54618;52.018;5.576;2022-08-07T03:21:21;2.80;;;1.80;;
67819;SDS011;54618;52.018;5.576;2022-08-07T03:23:47;3.65;;;1.70;;
67819;SDS011;54618;52.018;5.576;2022-08-07T03:26:15;4.55;;;1.83;;
67819;SDS011;54618;52.018;5.576;2022-08-07T03:28:43;3.38;;;1.50;;
67819;SDS011;54618;52.018;5.576;2022-08-07T03:31:10;3.45;;;1.85;;
67819;SDS011;54618;52.018;5.576;2022-08-07T03:33:56;2.75;;;1.70;;
67819;SDS011;54618;52.018;5.576;2022-08-07T03:36:24;2.50;;;1.60;;
67819;SDS011;54618;52.018;5.576;2022-08-07T03:38:52;2.22;;;1.60;;
67819;SDS011;54618;52.018;5.576;2022-08-07T03:41:21;3.47;;;1.70;;
67819;SDS011;54618;52.018;5.576;2022-08-07T03:43:47;2.58;;;1.77;;
67819;SDS011;54618;52.018;5.576;2022-08-07T03:46:13;2.20;;;1.50;;
67819;SDS011;54618;52.018;5.576;2022-08-07T03:48:40;2.58;;;1.50;;
67819;SDS011;54618;52.018;5.576;2022-08-07T03:51:05;2.70;;;1.77;;
67819;SDS011;54618;52.018;5.576;2022-08-07T03:53:32;2.90;;;1.77;;
67819;SDS011;54618;52.018;5.576;2022-08-07T03:55:58;2.97;;;1.70;;
67819;SDS011;54618;52.018;5.576;2022-08-07T03:58:25;2.72;;;1.77;;
67819;SDS011;54618;52.018;5.576;2022-08-07T04:00:52;4.00;;;1.90;;
67819;SDS011;54618;52.018;5.576;2022-08-07T04:03:20;2.67;;;1.60;;
67819;SDS011;54618;52.018;5.576;2022-08-07T04:05:45;2.65;;;1.85;;
67819;SDS011;54618;52.018;5.576;2022-08-07T04:08:12;4.80;;;1.70;;
67819;SDS011;54618;52.018;5.576;2022-08-07T04:10:39;2.30;;;1.45;;
67819;SDS011;54618;52.018;5.576;2022-08-07T04:13:06;2.70;;;1.70;;
67819;SDS011;54618;52.018;5.576;2022-08-07T04:15:35;3.63;;;1.85;;
67819;SDS011;54618;52.018;5.576;2022-08-07T04:18:01;2.30;;;1.65;;
67819;SDS011;54618;52.018;5.576;2022-08-07T04:20:27;5.63;;;2.00;;
67819;SDS011;54618;52.018;5.576;2022-08-07T04:22:53;3.03;;;1.70;;
67819;SDS011;54618;52.018;5.576;2022-08-07T04:25:22;3.60;;;1.75;;
67819;SDS011;54618;52.018;5.576;2022-08-07T04:27:49;2.90;;;1.70;;
67819;SDS011;54618;52.018;5.576;2022-08-07T04:30:15;2.30;;;1.50;;
67819;SDS011;54618;52.018;5.576;2022-08-07T04:32:41;2.55;;;1.67;;
67819;SDS011;54618;52.018;5.576;2022-08-07T04:35:07;2.97;;;1.88;;
67819;SDS011;54618;52.018;5.576;2022-08-07T04:37:33;3.55;;;1.88;;
67819;SDS011;54618;52.018;5.576;2022-08-07T04:40:00;2.63;;;1.65;;
67819;SDS011;54618;52.018;5.576;2022-08-07T04:42:26;3.03;;;1.65;;
67819;SDS011;54618;52.018;5.576;2022-08-07T04:44:55;2.85;;;1.77;;
67819;SDS011;54618;52.018;5.576;2022-08-07T04:47:28;2.90;;;1.80;;
67819;SDS011;54618;52.018;5.576;2022-08-07T04:56:04;3.00;;;1.63;;
67819;SDS011;54618;52.018;5.576;2022-08-07T04:58:56;2.40;;;1.65;;
67819;SDS011;54618;52.018;5.576;2022-08-07T05:01:31;2.80;;;1.80;;
67819;SDS011;54618;52.018;5.576;2022-08-07T05:04:20;3.22;;;1.85;;
67819;SDS011;54618;52.018;5.576;2022-08-07T05:06:57;3.85;;;1.98;;
67819;SDS011;54618;52.018;5.576;2022-08-07T05:09:38;3.10;;;1.80;;
67819;SDS011;54618;52.018;5.576;2022-08-07T05:12:21;3.63;;;1.73;;
67819;SDS011;54618;52.018;5.576;2022-08-07T05:15:10;3.20;;;1.83;;
67819;SDS011;54618;52.018;5.576;2022-08-07T05:17:46;2.90;;;1.80;;
67819;SDS011;54618;52.018;5.576;2022-08-07T05:20:16;3.38;;;2.00;;
67819;SDS011;54618;52.018;5.576;2022-08-07T05:22:45;3.03;;;1.90;;
67819;SDS011;54618;52.018;5.576;2022-08-07T05:25:14;3.30;;;1.85;;
67819;SDS011;54618;52.018;5.576;2022-08-07T05:27:41;3.33;;;1.95;;
67819;SDS011;54618;52.018;5.576;2022-08-07T05:30:10;4.65;;;2.08;;
67819;SDS011;54618;52.018;5.576;2022-08-07T05:32:36;3.88;;;2.10;;
67819;SDS011;54618;52.018;5.576;2022-08-07T05:35:03;3.63;;;1.92;;
67819;SDS011;54618;52.018;5.576;2022-08-07T05:37:30;3.13;;;1.90;;
67819;SDS011;54618;52.018;5.576;2022-08-07T05:39:56;3.30;;;2.00;;
67819;SDS011;54618;52.018;5.576;2022-08-07T05:42:24;3.10;;;2.03;;
67819;SDS011;54618;52.018;5.576;2022-08-07T05:44:50;4.65;;;2.30;;
67819;SDS011;54618;52.018;5.576;2022-08-07T05:47:18;3.97;;;2.03;;
67819;SDS011;54618;52.018;5.576;2022-08-07T05:49:48;5.60;;;2.10;;
67819;SDS011;54618;52.018;5.576;2022-08-07T05:52:14;3.38;;;2.10;;
67819;SDS011;54618;52.018;5.576;2022-08-07T05:54:40;4.30;;;2.00;;
67819;SDS011;54618;52.018;5.576;2022-08-07T05:57:06;3.55;;;2.20;;
67819;SDS011;54618;52.018;5.576;2022-08-07T05:59:35;4.47;;;2.28;;
67819;SDS011;54618;52.018;5.576;2022-08-07T06:02:04;4.67;;;2.40;;
67819;SDS011;54618;52.018;5.576;2022-08-07T06:04:31;3.97;;;2.10;;
67819;SDS011;54618;52.018;5.576;2022-08-07T06:07:01;3.90;;;2.05;;
67819;SDS011;54618;52.018;5.576;2022-08-07T06:09:30;4.30;;;2.40;;
67819;SDS011;54618;52.018;5.576;2022-08-07T06:11:56;5.03;;;2.50;;
67819;SDS011;54618;52.018;5.576;2022-08-07T06:14:22;3.42;;;2.20;;
67819;SDS011;54618;52.018;5.576;2022-08-07T06:16:48;4.35;;;2.88;;
67819;SDS011;54618;52.018;5.576;2022-08-07T06:19:15;4.72;;;2.50;;
67819;SDS011;54618;52.018;5.576;2022-08-07T06:21:43;4.22;;;2.50;;
67819;SDS011;54618;52.018;5.576;2022-08-07T06:24:13;6.13;;;3.00;;
67819;SDS011;54618;52.018;5.576;2022-08-07T06:26:39;4.40;;;2.50;;
67819;SDS011;54618;52.018;5.576;2022-08-07T06:29:05;4.22;;;2.90;;
67819;SDS011;54618;52.018;5.576;2022-08-07T06:31:32;3.80;;;2.42;;
67819;SDS011;54618;52.018;5.576;2022-08-07T06:33:58;5.00;;;3.10;;
67819;SDS011;54618;52.018;5.576;2022-08-07T06:36:24;3.60;;;2.58;;
67819;SDS011;54618;52.018;5.576;2022-08-07T06:38:51;4.75;;;2.75;;
67819;SDS011;54618;52.018;5.576;2022-08-07T06:41:25;4.30;;;2.70;;
67819;SDS011;54618;52.018;5.576;2022-08-07T06:44:02;3.97;;;2.75;;
67819;SDS011;54618;52.018;5.576;2022-08-07T06:46:29;5.53;;;3.00;;
67819;SDS011;54618;52.018;5.576;2022-08-07T06:48:55;4.85;;;3.08;;
67819;SDS011;54618;52.018;5.576;2022-08-07T06:51:21;5.28;;;3.00;;
67819;SDS011;54618;52.018;5.576;2022-08-07T06:53:51;5.47;;;3.20;;
67819;SDS011;54618;52.018;5.576;2022-08-07T06:56:18;7.38;;;3.25;;
67819;SDS011;54618;52.018;5.576;2022-08-07T06:59:04;5.15;;;3.10;;
67819;SDS011;54618;52.018;5.576;2022-08-07T07:01:31;4.88;;;2.90;;
67819;SDS011;54618;52.018;5.576;2022-08-07T07:03:58;4.88;;;3.20;;
67819;SDS011;54618;52.018;5.576;2022-08-07T07:06:24;5.90;;;3.10;;
67819;SDS011;54618;52.018;5.576;2022-08-07T07:08:50;4.55;;;2.97;;
67819;SDS011;54618;52.018;5.576;2022-08-07T07:11:16;4.63;;;3.05;;
67819;SDS011;54618;52.018;5.576;2022-08-07T07:13:43;4.60;;;2.90;;
67819;SDS011;54618;52.018;5.576;2022-08-07T07:16:15;5.72;;;2.85;;
67819;SDS011;54618;52.018;5.576;2022-08-07T07:18:48;3.83;;;2.72;;
67819;SDS011;54618;52.018;5.576;2022-08-07T07:21:21;4.60;;;2.60;;
67819;SDS011;54618;52.018;5.576;2022-08-07T07:23:50;4.53;;;3.13;;
67819;SDS011;54618;52.018;5.576;2022-08-07T07:26:18;4.47;;;2.83;;
67819;SDS011;54618;52.018;5.576;2022-08-07T07:31:38;4.97;;;3.30;;
67819;SDS011;54618;52.018;5.576;2022-08-07T07:34:09;5.28;;;2.60;;
67819;SDS011;54618;52.018;5.576;2022-08-07T07:36:38;3.80;;;2.83;;
67819;SDS011;54618;52.018;5.576;2022-08-07T07:39:08;5.07;;;3.10;;
67819;SDS011;54618;52.018;5.576;2022-08-07T07:41:35;4.95;;;3.00;;
67819;SDS011;54618;52.018;5.576;2022-08-07T07:44:03;5.00;;;2.97;;
67819;SDS011;54618;52.018;5.576;2022-08-07T07:46:31;4.68;;;3.03;;
67819;SDS011;54618;52.018;5.576;2022-08-07T07:48:59;4.78;;;3.10;;
67819;SDS011;54618;52.018;5.576;2022-08-07T07:51:26;3.60;;;2.72;;
67819;SDS011;54618;52.018;5.576;2022-08-07T07:53:53;4.13;;;2.97;;
67819;SDS011;54618;52.018;5.576;2022-08-07T07:56:22;4.40;;;2.88;;
67819;SDS011;54618;52.018;5.576;2022-08-07T07:58:48;3.72;;;2.70;;
67819;SDS011;54618;52.018;5.576;2022-08-07T08:01:17;4.88;;;2.80;;
67819;SDS011;54618;52.018;5.576;2022-08-07T08:03:45;5.38;;;2.90;;
67819;SDS011;54618;52.018;5.576;2022-08-07T08:06:13;4.25;;;2.55;;
67819;SDS011;54618;52.018;5.576;2022-08-07T08:08:39;4.97;;;2.83;;
67819;SDS011;54618;52.018;5.576;2022-08-07T08:11:07;4.43;;;2.90;;
67819;SDS011;54618;52.018;5.576;2022-08-07T08:13:34;4.60;;;2.90;;
67819;SDS011;54618;52.018;5.576;2022-08-07T08:16:02;4.05;;;2.70;;
67819;SDS011;54618;52.018;5.576;2022-08-07T08:18:30;4.30;;;2.63;;
67819;SDS011;54618;52.018;5.576;2022-08-07T08:21:00;5.00;;;2.65;;
67819;SDS011;54618;52.018;5.576;2022-08-07T08:23:29;4.57;;;2.70;;
67819;SDS011;54618;52.018;5.576;2022-08-07T08:26:15;3.95;;;2.85;;
67819;SDS011;54618;52.018;5.576;2022-08-07T08:29:02;4.60;;;2.80;;
67819;SDS011;54618;52.018;5.576;2022-08-07T08:31:30;4.53;;;2.50;;
67819;SDS011;54618;52.018;5.576;2022-08-07T08:34:00;4.95;;;2.67;;
67819;SDS011;54618;52.018;5.576;2022-08-07T08:36:28;4.22;;;2.95;;
67819;SDS011;54618;52.018;5.576;2022-08-07T08:38:56;5.80;;;3.10;;
67819;SDS011;54618;52.018;5.576;2022-08-07T08:41:42;4.45;;;2.88;;
67819;SDS011;54618;52.018;5.576;2022-08-07T08:50:22;4.85;;;3.13;;
67819;SDS011;54618;52.018;5.576;2022-08-07T08:56:03;4.70;;;2.90;;
67819;SDS011;54618;52.018;5.576;2022-08-07T09:01:10;4.47;;;2.60;;
67819;SDS011;54618;52.018;5.576;2022-08-07T09:03:43;3.83;;;2.70;;
67819;SDS011;54618;52.018;5.576;2022-08-07T09:06:20;3.95;;;2.67;;
67819;SDS011;54618;52.018;5.576;2022-08-07T09:16:53;4.15;;;2.90;;
67819;SDS011;54618;52.018;5.576;2022-08-07T09:19:29;3.63;;;2.58;;
67819;SDS011;54618;52.018;5.576;2022-08-07T09:25:25;4.03;;;2.60;;
67819;SDS011;54618;52.018;5.576;2022-08-07T09:28:02;4.78;;;2.95;;
67819;SDS011;54618;52.018;5.576;2022-08-07T09:30:32;4.18;;;2.75;;
67819;SDS011;54618;52.018;5.576;2022-08-07T09:33:26;4.15;;;2.50;;
67819;SDS011;54618;52.018;5.576;2022-08-07T09:36:21;5.03;;;2.42;;
67819;SDS011;54618;52.018;5.576;2022-08-07T09:47:11;5.07;;;2.28;;
67819;SDS011;54618;52.018;5.576;2022-08-07T09:52:36;3.72;;;2.30;;
67819;SDS011;54618;52.018;5.576;2022-08-07T09:57:43;4.95;;;2.53;;
67819;SDS011;54618;52.018;5.576;2022-08-07T10:11:58;4.63;;;2.33;;
67819;SDS011;54618;52.018;5.576;2022-08-07T10:14:39;3.42;;;2.40;;
67819;SDS011;54618;52.018;5.576;2022-08-07T10:20:30;3.95;;;2.38;;
67819;SDS011;54618;52.018;5.576;2022-08-07T10:25:43;3.40;;;2.33;;
67819;SDS011;54618;52.018;5.576;2022-08-07T10:28:28;3.35;;;2.40;;
67819;SDS011;54618;52.018;5.576;2022-08-07T10:36:27;4.03;;;2.60;;
67819;SDS011;54618;52.018;5.576;2022-08-07T10:38:56;3.30;;;2.40;;
67819;SDS011;54618;52.018;5.576;2022-08-07T10:41:34;3.60;;;2.58;;
67819;SDS011;54618;52.018;5.576;2022-08-07T10:47:00;3.53;;;2.20;;
67819;SDS011;54618;52.018;5.576;2022-08-07T10:52:17;3.78;;;2.50;;
67819;SDS011;54618;52.018;5.576;2022-08-07T10:55:10;3.78;;;2.20;;
67819;SDS011;54618;52.018;5.576;2022-08-07T11:00:26;3.80;;;2.42;;
67819;SDS011;54618;52.018;5.576;2022-08-07T11:08:13;4.95;;;2.45;;
67819;SDS011;54618;52.018;5.576;2022-08-07T11:11:13;2.90;;;2.10;;
67819;SDS011;54618;52.018;5.576;2022-08-07T11:13:41;3.10;;;2.30;;
67819;SDS011;54618;52.018;5.576;2022-08-07T11:16:24;2.90;;;2.10;;
67819;SDS011;54618;52.018;5.576;2022-08-07T11:21:44;3.83;;;2.00;;
67819;SDS011;54618;52.018;5.576;2022-08-07T11:24:27;3.22;;;2.20;;
67819;SDS011;54618;52.018;5.576;2022-08-07T11:27:12;5.10;;;2.30;;
67819;SDS011;54618;52.018;5.576;2022-08-07T11:29:53;2.80;;;2.00;;
67819;SDS011;54618;52.018;5.576;2022-08-07T11:35:29;4.00;;;2.08;;
67819;SDS011;54618;52.018;5.576;2022-08-07T11:38:25;3.20;;;2.15;;
67819;SDS011;54618;52.018;5.576;2022-08-07T11:41:12;3.00;;;2.20;;
67819;SDS011;54618;52.018;5.576;2022-08-07T11:43:50;3.55;;;1.90;;
67819;SDS011;54618;52.018;5.576;2022-08-07T11:46:37;3.60;;;2.10;;
67819;SDS011;54618;52.018;5.576;2022-08-07T11:55:12;4.13;;;2.40;;
67819;SDS011;54618;52.018;5.576;2022-08-07T11:57:52;3.25;;;2.20;;
67819;SDS011;54618;52.018;5.576;2022-08-07T12:08:17;4.53;;;3.03;;
67819;SDS011;54618;52.018;5.576;2022-08-07T12:10:48;3.42;;;1.95;;
67819;SDS011;54618;52.018;5.576;2022-08-07T12:13:34;4.50;;;2.15;;
67819;SDS011;54618;52.018;5.576;2022-08-07T12:16:19;3.53;;;2.00;;
67819;SDS011;54618;52.018;5.576;2022-08-07T12:21:38;2.70;;;1.90;;
67819;SDS011;54618;52.018;5.576;2022-08-07T12:26:52;2.70;;;1.90;;
67819;SDS011;54618;52.018;5.576;2022-08-07T12:32:23;3.83;;;2.10;;
67819;SDS011;54618;52.018;5.576;2022-08-07T12:34:55;2.85;;;2.00;;
67819;SDS011;54618;52.018;5.576;2022-08-07T12:37:23;2.67;;;1.80;;
67819;SDS011;54618;52.018;5.576;2022-08-07T12:39:51;3.22;;;1.92;;
67819;SDS011;54618;52.018;5.576;2022-08-07T12:42:19;2.35;;;1.70;;
67819;SDS011;54618;52.018;5.576;2022-08-07T12:44:48;2.40;;;1.90;;
67819;SDS011;54618;52.018;5.576;2022-08-07T12:50:06;2.50;;;1.80;;
67819;SDS011;54618;52.018;5.576;2022-08-07T12:58:01;2.58;;;1.60;;
67819;SDS011;54618;52.018;5.576;2022-08-07T13:00:33;3.08;;;1.80;;
67819;SDS011;54618;52.018;5.576;2022-08-07T13:06:24;2.60;;;1.70;;
67819;SDS011;54618;52.018;5.576;2022-08-07T13:12:06;2.50;;;1.70;;
67819;SDS011;54618;52.018;5.576;2022-08-07T13:14:58;2.90;;;1.80;;
67819;SDS011;54618;52.018;5.576;2022-08-07T13:17:43;2.83;;;1.75;;
67819;SDS011;54618;52.018;5.576;2022-08-07T13:20:29;3.80;;;1.80;;
67819;SDS011;54618;52.018;5.576;2022-08-07T13:23:13;2.50;;;1.80;;
67819;SDS011;54618;52.018;5.576;2022-08-07T13:26:04;2.75;;;1.85;;
67819;SDS011;54618;52.018;5.576;2022-08-07T13:28:42;2.97;;;1.70;;
67819;SDS011;54618;52.018;5.576;2022-08-07T13:31:18;2.60;;;1.67;;
67819;SDS011;54618;52.018;5.576;2022-08-07T13:33:53;2.33;;;1.63;;
67819;SDS011;54618;52.018;5.576;2022-08-07T13:36:29;2.47;;;1.75;;
67819;SDS011;54618;52.018;5.576;2022-08-07T13:39:06;2.53;;;1.75;;
67819;SDS011;54618;52.018;5.576;2022-08-07T13:41:41;2.92;;;1.75;;
67819;SDS011;54618;52.018;5.576;2022-08-07T13:44:12;4.85;;;1.80;;
67819;SDS011;54618;52.018;5.576;2022-08-07T13:46:44;3.65;;;1.88;;
67819;SDS011;54618;52.018;5.576;2022-08-07T13:49:12;3.38;;;1.83;;
67819;SDS011;54618;52.018;5.576;2022-08-07T13:51:42;2.40;;;1.50;;
67819;SDS011;54618;52.018;5.576;2022-08-07T13:54:11;2.83;;;1.70;;
67819;SDS011;54618;52.018;5.576;2022-08-07T13:56:38;3.60;;;1.70;;
67819;SDS011;54618;52.018;5.576;2022-08-07T13:59:11;2.60;;;1.90;;
67819;SDS011;54618;52.018;5.576;2022-08-07T14:01:52;2.60;;;1.70;;
67819;SDS011;54618;52.018;5.576;2022-08-07T14:04:28;2.83;;;1.70;;
67819;SDS011;54618;52.018;5.576;2022-08-07T14:06:55;3.28;;;1.85;;
67819;SDS011;54618;52.018;5.576;2022-08-07T14:09:25;2.40;;;1.70;;
67819;SDS011;54618;52.018;5.576;2022-08-07T14:11:55;3.30;;;1.85;;
67819;SDS011;54618;52.018;5.576;2022-08-07T14:14:29;2.13;;;1.58;;
67819;SDS011;54618;52.018;5.576;2022-08-07T14:17:04;2.10;;;1.42;;
67819;SDS011;54618;52.018;5.576;2022-08-07T14:22:01;2.50;;;1.40;;
67819;SDS011;54618;52.018;5.576;2022-08-07T14:24:34;2.97;;;1.60;;
67819;SDS011;54618;52.018;5.576;2022-08-07T14:27:05;2.58;;;1.58;;
67819;SDS011;54618;52.018;5.576;2022-08-07T14:29:35;2.60;;;1.65;;
67819;SDS011;54618;52.018;5.576;2022-08-07T14:32:05;2.10;;;1.50;;
67819;SDS011;54618;52.018;5.576;2022-08-07T14:34:33;2.15;;;1.50;;
67819;SDS011;54618;52.018;5.576;2022-08-07T14:37:02;2.17;;;1.45;;
67819;SDS011;54618;52.018;5.576;2022-08-07T14:39:37;4.18;;;1.42;;
67819;SDS011;54618;52.018;5.576;2022-08-07T14:42:09;2.50;;;1.55;;
67819;SDS011;54618;52.018;5.576;2022-08-07T14:44:36;2.40;;;1.63;;
67819;SDS011;54618;52.018;5.576;2022-08-07T14:47:04;2.13;;;1.45;;
67819;SDS011;54618;52.018;5.576;2022-08-07T14:49:32;2.53;;;1.60;;
67819;SDS011;54618;52.018;5.576;2022-08-07T14:51:59;2.42;;;1.50;;
67819;SDS011;54618;52.018;5.576;2022-08-07T14:54:30;3.65;;;1.60;;
67819;SDS011;54618;52.018;5.576;2022-08-07T14:56:59;2.17;;;1.42;;
67819;SDS011;54618;52.018;5.576;2022-08-07T14:59:27;2.53;;;1.60;;
67819;SDS011;54618;52.018;5.576;2022-08-07T15:02:06;2.95;;;1.50;;
67819;SDS011;54618;52.018;5.576;2022-08-07T15:04:39;2.20;;;1.52;;
67819;SDS011;54618;52.018;5.576;2022-08-07T15:07:08;2.40;;;1.70;;
67819;SDS011;54618;52.018;5.576;2022-08-07T15:12:06;3.15;;;1.70;;
67819;SDS011;54618;52.018;5.576;2022-08-07T15:14:35;3.08;;;1.70;;
67819;SDS011;54618;52.018;5.576;2022-08-07T15:17:13;2.63;;;1.70;;
67819;SDS011;54618;52.018;5.576;2022-08-07T15:19:49;3.55;;;1.73;;
67819;SDS011;54618;52.018;5.576;2022-08-07T15:22:17;2.20;;;1.60;;
67819;SDS011;54618;52.018;5.576;2022-08-07T15:24:46;2.17;;;1.50;;
67819;SDS011;54618;52.018;5.576;2022-08-07T15:27:15;2.60;;;1.50;;
67819;SDS011;54618;52.018;5.576;2022-08-07T15:29:49;2.53;;;1.50;;
67819;SDS011;54618;52.018;5.576;2022-08-07T15:32:17;3.08;;;1.70;;
67819;SDS011;54618;52.018;5.576;2022-08-07T15:37:16;2.38;;;1.55;;
67819;SDS011;54618;52.018;5.576;2022-08-07T15:39:46;2.97;;;1.70;;
67819;SDS011;54618;52.018;5.576;2022-08-07T15:44:59;2.47;;;1.70;;
67819;SDS011;54618;52.018;5.576;2022-08-07T15:47:31;2.47;;;1.58;;
67819;SDS011;54618;52.018;5.576;2022-08-07T15:52:26;2.90;;;1.63;;
67819;SDS011;54618;52.018;5.576;2022-08-07T15:54:54;3.55;;;1.73;;
67819;SDS011;54618;52.018;5.576;2022-08-07T15:57:25;2.58;;;1.70;;
67819;SDS011;54618;52.018;5.576;2022-08-07T15:59:54;3.20;;;1.80;;
67819;SDS011;54618;52.018;5.576;2022-08-07T16:02:23;2.10;;;1.60;;
67819;SDS011;54618;52.018;5.576;2022-08-07T16:04:59;2.65;;;1.52;;
67819;SDS011;54618;52.018;5.576;2022-08-07T16:07:30;2.38;;;1.50;;
67819;SDS011;54618;52.018;5.576;2022-08-07T16:12:58;3.40;;;1.60;;
67819;SDS011;54618;52.018;5.576;2022-08-07T16:15:44;2.60;;;1.85;;
67819;SDS011;54618;52.018;5.576;2022-08-07T16:21:07;2.67;;;2.00;;
67819;SDS011;54618;52.018;5.576;2022-08-07T16:23:44;2.53;;;1.80;;
67819;SDS011;54618;52.018;5.576;2022-08-07T16:26:27;2.55;;;1.70;;
67819;SDS011;54618;52.018;5.576;2022-08-07T16:29:08;2.40;;;1.58;;
67819;SDS011;54618;52.018;5.576;2022-08-07T16:34:28;2.67;;;1.50;;
67819;SDS011;54618;52.018;5.576;2022-08-07T16:43:22;2.47;;;1.58;;
67819;SDS011;54618;52.018;5.576;2022-08-07T16:51:38;2.88;;;1.73;;
67819;SDS011;54618;52.018;5.576;2022-08-07T16:58:15;2.67;;;1.70;;
67819;SDS011;54618;52.018;5.576;2022-08-07T17:00:20;3.22;;;1.50;;
67819;SDS011;54618;52.018;5.576;2022-08-07T17:05:42;2.10;;;1.40;;
67819;SDS011;54618;52.018;5.576;2022-08-07T17:08:16;3.10;;;1.67;;
67819;SDS011;54618;52.018;5.576;2022-08-07T17:11:11;2.30;;;1.58;;
67819;SDS011;54618;52.018;5.576;2022-08-07T17:16:38;3.10;;;1.60;;
67819;SDS011;54618;52.018;5.576;2022-08-07T17:19:19;3.38;;;1.70;;
67819;SDS011;54618;52.018;5.576;2022-08-07T17:22:07;3.65;;;1.60;;
67819;SDS011;54618;52.018;5.576;2022-08-07T17:30:11;2.95;;;1.60;;
67819;SDS011;54618;52.018;5.576;2022-08-07T17:35:14;2.80;;;1.60;;
67819;SDS011;54618;52.018;5.576;2022-08-07T17:37:50;3.00;;;1.73;;
67819;SDS011;54618;52.018;5.576;2022-08-07T17:40:55;2.33;;;1.60;;
67819;SDS011;54618;52.018;5.576;2022-08-07T17:43:26;3.05;;;1.67;;
67819;SDS011;54618;52.018;5.576;2022-08-07T17:46:07;3.47;;;1.75;;
67819;SDS011;54618;52.018;5.576;2022-08-07T17:48:40;2.95;;;1.70;;
67819;SDS011;54618;52.018;5.576;2022-08-07T17:51:33;2.55;;;1.80;;
67819;SDS011;54618;52.018;5.576;2022-08-07T17:56:40;3.00;;;1.80;;
67819;SDS011;54618;52.018;5.576;2022-08-07T17:59:34;3.58;;;1.75;;
67819;SDS011;54618;52.018;5.576;2022-08-07T18:02:06;3.45;;;2.05;;
67819;SDS011;54618;52.018;5.576;2022-08-07T18:10:21;2.60;;;1.73;;
67819;SDS011;54618;52.018;5.576;2022-08-07T18:15:27;3.08;;;1.80;;
67819;SDS011;54618;52.018;5.576;2022-08-07T18:18:00;2.85;;;1.83;;
67819;SDS011;54618;52.018;5.576;2022-08-07T18:20:32;3.03;;;1.70;;